sensor_id;sensor_type;location;lat;lon;timestamp;P1;durP1;ratioP1;P2;durP2;ratioP2
9473;SDS011;8865;47.636;7.692;2022-10-22T00:00:12;3.27;;;2.60;;
9473;SDS011;8865;47.636;7.692;2022-10-22T00:02:39;4.20;;;2.60;;
9473;SDS011;8865;47.636;7.692;2022-10-22T00:05:06;10.17;;;2.97;;
9473;SDS011;8865;47.636;7.692;2022-10-22T00:07:32;4.77;;;2.73;;
9473;SDS011;8865;47.636;7.692;2022-10-22T00:09:58;3.43;;;2.73;;
9473;SDS011;8865;47.636;7.692;2022-10-22T00:12:24;5.53;;;2.50;;
9473;SDS011;8865;47.636;7.692;2022-10-22T00:14:50;3.10;;;2.63;;
9473;SDS011;8865;47.636;7.692;2022-10-22T00:17:16;5.30;;;2.70;;
9473;SDS011;8865;47.636;7.692;2022-10-22T00:19:42;6.97;;;2.97;;
9473;SDS011;8865;47.636;7.692;2022-10-22T00:22:08;5.47;;;2.37;;
9473;SDS011;8865;47.636;7.692;2022-10-22T00:24:36;5.20;;;2.50;;
9473;SDS011;8865;47.636;7.692;2022-10-22T00:27:03;4.57;;;2.43;;
9473;SDS011;8865;47.636;7.692;2022-10-22T00:29:30;5.23;;;2.50;;
9473;SDS011;8865;47.636;7.692;2022-10-22T00:31:56;4.30;;;3.27;;
9473;SDS011;8865;47.636;7.692;2022-10-22T00:34:22;5.30;;;3.73;;
9473;SDS011;8865;47.636;7.692;2022-10-22T00:36:49;4.50;;;3.60;;
9473;SDS011;8865;47.636;7.692;2022-10-22T00:39:16;4.57;;;4.07;;
9473;SDS011;8865;47.636;7.692;2022-10-22T00:41:44;7.67;;;4.10;;
9473;SDS011;8865;47.636;7.692;2022-10-22T00:47:15;6.23;;;3.33;;
9473;SDS011;8865;47.636;7.692;2022-10-22T00:49:43;5.63;;;3.13;;
9473;SDS011;8865;47.636;7.692;2022-10-22T00:52:11;3.30;;;3.00;;
9473;SDS011;8865;47.636;7.692;2022-10-22T00:54:38;7.33;;;3.10;;
9473;SDS011;8865;47.636;7.692;2022-10-22T00:57:06;6.63;;;5.93;;
9473;SDS011;8865;47.636;7.692;2022-10-22T00:59:33;8.40;;;4.67;;
9473;SDS011;8865;47.636;7.692;2022-10-22T01:01:59;4.67;;;3.30;;
9473;SDS011;8865;47.636;7.692;2022-10-22T01:04:25;4.03;;;2.83;;
9473;SDS011;8865;47.636;7.692;2022-10-22T01:06:51;2.30;;;2.10;;
9473;SDS011;8865;47.636;7.692;2022-10-22T01:12:03;3.03;;;2.00;;
9473;SDS011;8865;47.636;7.692;2022-10-22T01:26:03;5.73;;;1.90;;
9473;SDS011;8865;47.636;7.692;2022-10-22T01:31:23;6.20;;;1.57;;
9473;SDS011;8865;47.636;7.692;2022-10-22T01:33:52;4.10;;;1.43;;
9473;SDS011;8865;47.636;7.692;2022-10-22T01:36:19;8.53;;;1.60;;
9473;SDS011;8865;47.636;7.692;2022-10-22T01:38:46;4.07;;;1.40;;
9473;SDS011;8865;47.636;7.692;2022-10-22T01:41:14;4.03;;;1.50;;
9473;SDS011;8865;47.636;7.692;2022-10-22T01:43:40;3.50;;;1.30;;
9473;SDS011;8865;47.636;7.692;2022-10-22T01:46:06;5.80;;;1.20;;
9473;SDS011;8865;47.636;7.692;2022-10-22T01:54:29;3.20;;;1.13;;
9473;SDS011;8865;47.636;7.692;2022-10-22T02:07:45;2.80;;;1.40;;
9473;SDS011;8865;47.636;7.692;2022-10-22T02:10:14;4.47;;;1.70;;
9473;SDS011;8865;47.636;7.692;2022-10-22T02:12:43;2.17;;;1.60;;
9473;SDS011;8865;47.636;7.692;2022-10-22T02:15:13;3.40;;;1.50;;
9473;SDS011;8865;47.636;7.692;2022-10-22T02:17:41;4.73;;;1.80;;
9473;SDS011;8865;47.636;7.692;2022-10-22T02:20:12;2.17;;;1.40;;
9473;SDS011;8865;47.636;7.692;2022-10-22T02:22:42;3.47;;;1.70;;
9473;SDS011;8865;47.636;7.692;2022-10-22T02:25:09;3.93;;;1.60;;
9473;SDS011;8865;47.636;7.692;2022-10-22T02:30:24;2.87;;;1.70;;
9473;SDS011;8865;47.636;7.692;2022-10-22T02:32:59;3.37;;;1.70;;
9473;SDS011;8865;47.636;7.692;2022-10-22T02:35:31;4.73;;;1.70;;
9473;SDS011;8865;47.636;7.692;2022-10-22T02:37:58;3.97;;;1.90;;
9473;SDS011;8865;47.636;7.692;2022-10-22T02:40:24;3.47;;;1.97;;
9473;SDS011;8865;47.636;7.692;2022-10-22T02:42:51;2.77;;;1.90;;
9473;SDS011;8865;47.636;7.692;2022-10-22T02:45:18;3.93;;;2.07;;
9473;SDS011;8865;47.636;7.692;2022-10-22T02:47:44;4.23;;;2.10;;
9473;SDS011;8865;47.636;7.692;2022-10-22T02:50:11;5.77;;;2.17;;
9473;SDS011;8865;47.636;7.692;2022-10-22T02:52:37;3.10;;;2.03;;
9473;SDS011;8865;47.636;7.692;2022-10-22T02:55:04;3.60;;;1.83;;
9473;SDS011;8865;47.636;7.692;2022-10-22T02:57:31;2.00;;;1.80;;
9473;SDS011;8865;47.636;7.692;2022-10-22T02:59:57;3.03;;;2.10;;
9473;SDS011;8865;47.636;7.692;2022-10-22T03:02:23;4.47;;;2.07;;
9473;SDS011;8865;47.636;7.692;2022-10-22T03:04:50;6.57;;;2.00;;
9473;SDS011;8865;47.636;7.692;2022-10-22T03:07:16;4.73;;;1.63;;
9473;SDS011;8865;47.636;7.692;2022-10-22T03:09:42;3.90;;;1.90;;
9473;SDS011;8865;47.636;7.692;2022-10-22T03:12:08;3.67;;;1.70;;
9473;SDS011;8865;47.636;7.692;2022-10-22T03:14:34;3.43;;;1.67;;
9473;SDS011;8865;47.636;7.692;2022-10-22T03:17:00;2.77;;;1.70;;
9473;SDS011;8865;47.636;7.692;2022-10-22T03:19:26;5.27;;;1.80;;
9473;SDS011;8865;47.636;7.692;2022-10-22T03:22:01;3.13;;;1.80;;
9473;SDS011;8865;47.636;7.692;2022-10-22T03:24:39;4.40;;;1.40;;
9473;SDS011;8865;47.636;7.692;2022-10-22T03:27:08;3.03;;;1.20;;
9473;SDS011;8865;47.636;7.692;2022-10-22T03:29:37;4.90;;;1.50;;
9473;SDS011;8865;47.636;7.692;2022-10-22T03:32:05;5.07;;;1.40;;
9473;SDS011;8865;47.636;7.692;2022-10-22T03:34:31;2.13;;;1.17;;
9473;SDS011;8865;47.636;7.692;2022-10-22T03:36:58;2.53;;;1.20;;
9473;SDS011;8865;47.636;7.692;2022-10-22T03:39:26;1.70;;;1.10;;
9473;SDS011;8865;47.636;7.692;2022-10-22T03:41:56;1.70;;;1.20;;
9473;SDS011;8865;47.636;7.692;2022-10-22T03:44:22;3.77;;;1.10;;
9473;SDS011;8865;47.636;7.692;2022-10-22T03:46:49;3.33;;;1.50;;
9473;SDS011;8865;47.636;7.692;2022-10-22T03:49:15;3.13;;;1.10;;
9473;SDS011;8865;47.636;7.692;2022-10-22T03:51:41;4.60;;;1.60;;
9473;SDS011;8865;47.636;7.692;2022-10-22T03:54:08;3.20;;;1.20;;
9473;SDS011;8865;47.636;7.692;2022-10-22T03:56:33;4.33;;;1.10;;
9473;SDS011;8865;47.636;7.692;2022-10-22T03:59:00;1.90;;;1.23;;
9473;SDS011;8865;47.636;7.692;2022-10-22T04:01:26;3.80;;;1.40;;
9473;SDS011;8865;47.636;7.692;2022-10-22T04:03:54;3.47;;;1.20;;
9473;SDS011;8865;47.636;7.692;2022-10-22T04:06:21;3.70;;;1.13;;
9473;SDS011;8865;47.636;7.692;2022-10-22T04:08:47;3.10;;;1.20;;
9473;SDS011;8865;47.636;7.692;2022-10-22T04:11:13;7.10;;;1.30;;
9473;SDS011;8865;47.636;7.692;2022-10-22T04:13:40;1.77;;;1.20;;
9473;SDS011;8865;47.636;7.692;2022-10-22T04:16:10;1.90;;;1.13;;
9473;SDS011;8865;47.636;7.692;2022-10-22T04:18:47;1.50;;;1.00;;
9473;SDS011;8865;47.636;7.692;2022-10-22T04:21:16;1.93;;;1.20;;
9473;SDS011;8865;47.636;7.692;2022-10-22T04:23:47;2.40;;;0.93;;
9473;SDS011;8865;47.636;7.692;2022-10-22T04:26:14;4.50;;;1.00;;
9473;SDS011;8865;47.636;7.692;2022-10-22T04:28:42;8.63;;;1.40;;
9473;SDS011;8865;47.636;7.692;2022-10-22T04:31:12;1.50;;;1.00;;
9473;SDS011;8865;47.636;7.692;2022-10-22T04:33:39;6.00;;;1.43;;
9473;SDS011;8865;47.636;7.692;2022-10-22T04:36:06;4.53;;;1.10;;
9473;SDS011;8865;47.636;7.692;2022-10-22T04:38:33;2.60;;;1.10;;
9473;SDS011;8865;47.636;7.692;2022-10-22T04:41:15;5.50;;;1.23;;
9473;SDS011;8865;47.636;7.692;2022-10-22T04:43:43;1.70;;;1.20;;
9473;SDS011;8865;47.636;7.692;2022-10-22T04:46:10;5.07;;;1.17;;
9473;SDS011;8865;47.636;7.692;2022-10-22T04:48:38;3.57;;;1.17;;
9473;SDS011;8865;47.636;7.692;2022-10-22T04:51:06;5.00;;;1.17;;
9473;SDS011;8865;47.636;7.692;2022-10-22T04:53:33;4.20;;;1.00;;
9473;SDS011;8865;47.636;7.692;2022-10-22T04:56:09;6.73;;;1.10;;
9473;SDS011;8865;47.636;7.692;2022-10-22T04:58:37;4.80;;;1.30;;
9473;SDS011;8865;47.636;7.692;2022-10-22T05:01:16;6.10;;;1.40;;
9473;SDS011;8865;47.636;7.692;2022-10-22T05:03:47;7.57;;;1.33;;
9473;SDS011;8865;47.636;7.692;2022-10-22T05:06:15;4.93;;;1.57;;
9473;SDS011;8865;47.636;7.692;2022-10-22T05:08:41;4.00;;;1.23;;
9473;SDS011;8865;47.636;7.692;2022-10-22T05:11:18;4.57;;;1.33;;
9473;SDS011;8865;47.636;7.692;2022-10-22T05:13:46;4.97;;;1.50;;
9473;SDS011;8865;47.636;7.692;2022-10-22T05:16:12;4.67;;;1.40;;
9473;SDS011;8865;47.636;7.692;2022-10-22T05:18:39;2.93;;;1.40;;
9473;SDS011;8865;47.636;7.692;2022-10-22T05:21:08;7.33;;;1.30;;
9473;SDS011;8865;47.636;7.692;2022-10-22T05:23:36;2.90;;;1.47;;
9473;SDS011;8865;47.636;7.692;2022-10-22T05:26:03;3.97;;;1.43;;
9473;SDS011;8865;47.636;7.692;2022-10-22T05:28:30;3.07;;;1.40;;
9473;SDS011;8865;47.636;7.692;2022-10-22T05:30:58;5.47;;;2.00;;
9473;SDS011;8865;47.636;7.692;2022-10-22T05:33:25;2.37;;;1.50;;
9473;SDS011;8865;47.636;7.692;2022-10-22T05:35:51;3.50;;;1.70;;
9473;SDS011;8865;47.636;7.692;2022-10-22T05:38:18;5.70;;;2.10;;
9473;SDS011;8865;47.636;7.692;2022-10-22T05:40:44;5.03;;;1.73;;
9473;SDS011;8865;47.636;7.692;2022-10-22T05:43:10;8.57;;;1.90;;
9473;SDS011;8865;47.636;7.692;2022-10-22T05:45:37;3.77;;;1.50;;
9473;SDS011;8865;47.636;7.692;2022-10-22T05:48:03;4.67;;;1.43;;
9473;SDS011;8865;47.636;7.692;2022-10-22T05:50:30;8.10;;;1.50;;
9473;SDS011;8865;47.636;7.692;2022-10-22T05:52:56;4.87;;;1.47;;
9473;SDS011;8865;47.636;7.692;2022-10-22T05:55:22;4.77;;;1.63;;
9473;SDS011;8865;47.636;7.692;2022-10-22T05:57:48;5.27;;;1.50;;
9473;SDS011;8865;47.636;7.692;2022-10-22T06:00:15;6.73;;;1.70;;
9473;SDS011;8865;47.636;7.692;2022-10-22T06:02:41;4.37;;;1.60;;
9473;SDS011;8865;47.636;7.692;2022-10-22T06:05:07;2.47;;;1.43;;
9473;SDS011;8865;47.636;7.692;2022-10-22T06:07:33;2.27;;;1.73;;
9473;SDS011;8865;47.636;7.692;2022-10-22T06:10:00;5.07;;;1.50;;
9473;SDS011;8865;47.636;7.692;2022-10-22T06:12:27;3.37;;;1.73;;
9473;SDS011;8865;47.636;7.692;2022-10-22T06:14:53;2.63;;;1.60;;
9473;SDS011;8865;47.636;7.692;2022-10-22T06:17:18;3.90;;;1.70;;
9473;SDS011;8865;47.636;7.692;2022-10-22T06:19:44;3.10;;;1.70;;
9473;SDS011;8865;47.636;7.692;2022-10-22T06:22:10;3.33;;;1.60;;
9473;SDS011;8865;47.636;7.692;2022-10-22T06:24:36;7.10;;;1.90;;
9473;SDS011;8865;47.636;7.692;2022-10-22T06:27:02;4.87;;;2.40;;
9473;SDS011;8865;47.636;7.692;2022-10-22T06:29:28;4.50;;;3.00;;
9473;SDS011;8865;47.636;7.692;2022-10-22T06:31:54;7.07;;;2.57;;
9473;SDS011;8865;47.636;7.692;2022-10-22T06:34:20;4.97;;;3.60;;
9473;SDS011;8865;47.636;7.692;2022-10-22T06:36:46;6.33;;;3.60;;
9473;SDS011;8865;47.636;7.692;2022-10-22T06:39:13;4.83;;;3.00;;
9473;SDS011;8865;47.636;7.692;2022-10-22T06:41:40;3.43;;;2.83;;
9473;SDS011;8865;47.636;7.692;2022-10-22T06:44:07;5.80;;;2.70;;
9473;SDS011;8865;47.636;7.692;2022-10-22T06:46:39;2.87;;;2.63;;
9473;SDS011;8865;47.636;7.692;2022-10-22T06:49:05;2.93;;;2.33;;
9473;SDS011;8865;47.636;7.692;2022-10-22T06:51:31;6.43;;;2.57;;
9473;SDS011;8865;47.636;7.692;2022-10-22T06:53:57;2.70;;;2.10;;
9473;SDS011;8865;47.636;7.692;2022-10-22T06:56:24;3.30;;;2.63;;
9473;SDS011;8865;47.636;7.692;2022-10-22T06:58:52;5.30;;;2.60;;
9473;SDS011;8865;47.636;7.692;2022-10-22T07:01:21;4.57;;;2.27;;
9473;SDS011;8865;47.636;7.692;2022-10-22T07:03:49;3.73;;;1.90;;
9473;SDS011;8865;47.636;7.692;2022-10-22T07:06:16;3.23;;;1.53;;
9473;SDS011;8865;47.636;7.692;2022-10-22T07:08:43;2.73;;;1.73;;
9473;SDS011;8865;47.636;7.692;2022-10-22T07:11:16;6.63;;;1.60;;
9473;SDS011;8865;47.636;7.692;2022-10-22T07:13:44;5.17;;;1.70;;
9473;SDS011;8865;47.636;7.692;2022-10-22T07:16:11;2.97;;;1.73;;
9473;SDS011;8865;47.636;7.692;2022-10-22T07:18:37;4.77;;;1.73;;
9473;SDS011;8865;47.636;7.692;2022-10-22T07:21:05;8.40;;;2.13;;
9473;SDS011;8865;47.636;7.692;2022-10-22T07:23:32;4.53;;;1.77;;
9473;SDS011;8865;47.636;7.692;2022-10-22T07:25:58;5.40;;;2.03;;
9473;SDS011;8865;47.636;7.692;2022-10-22T07:28:24;6.30;;;3.20;;
9473;SDS011;8865;47.636;7.692;2022-10-22T07:30:50;2.77;;;1.90;;
9473;SDS011;8865;47.636;7.692;2022-10-22T07:33:19;7.17;;;2.40;;
9473;SDS011;8865;47.636;7.692;2022-10-22T07:35:45;6.80;;;2.20;;
9473;SDS011;8865;47.636;7.692;2022-10-22T07:38:11;4.30;;;2.17;;
9473;SDS011;8865;47.636;7.692;2022-10-22T07:40:37;5.47;;;2.20;;
9473;SDS011;8865;47.636;7.692;2022-10-22T07:43:03;4.10;;;1.93;;
9473;SDS011;8865;47.636;7.692;2022-10-22T07:45:29;8.13;;;1.90;;
9473;SDS011;8865;47.636;7.692;2022-10-22T07:47:55;2.83;;;2.00;;
9473;SDS011;8865;47.636;7.692;2022-10-22T07:50:21;2.90;;;2.03;;
9473;SDS011;8865;47.636;7.692;2022-10-22T07:52:47;5.13;;;1.70;;
9473;SDS011;8865;47.636;7.692;2022-10-22T07:55:13;3.63;;;1.70;;
9473;SDS011;8865;47.636;7.692;2022-10-22T07:57:39;4.07;;;1.70;;
9473;SDS011;8865;47.636;7.692;2022-10-22T08:00:06;4.00;;;2.20;;
9473;SDS011;8865;47.636;7.692;2022-10-22T08:02:33;3.93;;;1.90;;
9473;SDS011;8865;47.636;7.692;2022-10-22T08:04:59;5.80;;;2.33;;
9473;SDS011;8865;47.636;7.692;2022-10-22T08:07:26;5.60;;;1.50;;
9473;SDS011;8865;47.636;7.692;2022-10-22T08:09:52;3.53;;;1.70;;
9473;SDS011;8865;47.636;7.692;2022-10-22T08:12:18;3.77;;;1.47;;
9473;SDS011;8865;47.636;7.692;2022-10-22T08:14:44;2.90;;;1.30;;
9473;SDS011;8865;47.636;7.692;2022-10-22T08:17:10;4.20;;;1.10;;
9473;SDS011;8865;47.636;7.692;2022-10-22T08:19:36;4.63;;;1.30;;
9473;SDS011;8865;47.636;7.692;2022-10-22T08:22:02;2.87;;;1.40;;
9473;SDS011;8865;47.636;7.692;2022-10-22T08:24:28;2.60;;;0.90;;
9473;SDS011;8865;47.636;7.692;2022-10-22T08:26:54;3.43;;;1.10;;
9473;SDS011;8865;47.636;7.692;2022-10-22T08:29:21;6.37;;;0.70;;
9473;SDS011;8865;47.636;7.692;2022-10-22T08:31:48;3.77;;;1.30;;
9473;SDS011;8865;47.636;7.692;2022-10-22T08:34:14;2.17;;;1.10;;
9473;SDS011;8865;47.636;7.692;2022-10-22T08:36:41;1.38;;;1.10;;
9473;SDS011;8865;47.636;7.692;2022-10-22T08:39:07;2.25;;;0.95;;
9473;SDS011;8865;47.636;7.692;2022-10-22T08:41:35;1.85;;;0.88;;
9473;SDS011;8865;47.636;7.692;2022-10-22T08:49:41;2.45;;;1.00;;
9473;SDS011;8865;47.636;7.692;2022-10-22T08:52:16;4.70;;;1.23;;
9473;SDS011;8865;47.636;7.692;2022-10-22T08:54:52;3.50;;;1.20;;
9473;SDS011;8865;47.636;7.692;2022-10-22T09:00:10;4.88;;;1.60;;
9473;SDS011;8865;47.636;7.692;2022-10-22T09:07:56;4.50;;;1.55;;
9473;SDS011;8865;47.636;7.692;2022-10-22T09:10:32;2.55;;;0.90;;
9473;SDS011;8865;47.636;7.692;2022-10-22T09:13:01;4.53;;;1.23;;
9473;SDS011;8865;47.636;7.692;2022-10-22T09:15:27;2.78;;;1.10;;
9473;SDS011;8865;47.636;7.692;2022-10-22T09:23:43;3.67;;;1.00;;
9473;SDS011;8865;47.636;7.692;2022-10-22T09:25:52;2.40;;;0.88;;
9473;SDS011;8865;47.636;7.692;2022-10-22T09:28:19;2.22;;;0.80;;
9473;SDS011;8865;47.636;7.692;2022-10-22T09:30:45;1.60;;;0.80;;
9473;SDS011;8865;47.636;7.692;2022-10-22T09:33:13;3.58;;;1.08;;
9473;SDS011;8865;47.636;7.692;2022-10-22T09:35:54;2.70;;;0.80;;
9473;SDS011;8865;47.636;7.692;2022-10-22T09:38:28;1.67;;;0.70;;
9473;SDS011;8865;47.636;7.692;2022-10-22T09:40:57;0.80;;;0.70;;
9473;SDS011;8865;47.636;7.692;2022-10-22T09:43:24;3.00;;;0.80;;
9473;SDS011;8865;47.636;7.692;2022-10-22T09:45:55;1.40;;;0.57;;
9473;SDS011;8865;47.636;7.692;2022-10-22T09:51:17;1.15;;;0.73;;
9473;SDS011;8865;47.636;7.692;2022-10-22T09:53:46;1.38;;;0.70;;
9473;SDS011;8865;47.636;7.692;2022-10-22T09:56:22;1.17;;;0.55;;
9473;SDS011;8865;47.636;7.692;2022-10-22T09:58:53;1.13;;;0.50;;
9473;SDS011;8865;47.636;7.692;2022-10-22T10:01:25;3.15;;;0.57;;
9473;SDS011;8865;47.636;7.692;2022-10-22T10:03:53;3.20;;;0.68;;
9473;SDS011;8865;47.636;7.692;2022-10-22T10:06:29;2.90;;;0.50;;
9473;SDS011;8865;47.636;7.692;2022-10-22T10:08:57;1.98;;;0.77;;
9473;SDS011;8865;47.636;7.692;2022-10-22T10:11:36;2.47;;;0.90;;
9473;SDS011;8865;47.636;7.692;2022-10-22T10:23:21;2.83;;;0.85;;
9473;SDS011;8865;47.636;7.692;2022-10-22T10:26:19;2.28;;;0.60;;
9473;SDS011;8865;47.636;7.692;2022-10-22T10:34:13;1.13;;;0.60;;
9473;SDS011;8865;47.636;7.692;2022-10-22T10:43:05;2.88;;;0.80;;
9473;SDS011;8865;47.636;7.692;2022-10-22T10:45:43;1.10;;;0.82;;
9473;SDS011;8865;47.636;7.692;2022-10-22T10:48:38;2.08;;;1.00;;
9473;SDS011;8865;47.636;7.692;2022-10-22T10:54:04;2.90;;;0.90;;
9473;SDS011;8865;47.636;7.692;2022-10-22T10:56:45;2.42;;;0.90;;
9473;SDS011;8865;47.636;7.692;2022-10-22T11:01:58;1.63;;;0.90;;
9473;SDS011;8865;47.636;7.692;2022-10-22T11:04:40;3.15;;;0.90;;
9473;SDS011;8865;47.636;7.692;2022-10-22T11:07:10;1.50;;;0.88;;
9473;SDS011;8865;47.636;7.692;2022-10-22T11:09:52;1.90;;;1.30;;
9473;SDS011;8865;47.636;7.692;2022-10-22T11:12:29;1.95;;;1.00;;
9473;SDS011;8865;47.636;7.692;2022-10-22T11:17:46;3.15;;;0.90;;
9473;SDS011;8865;47.636;7.692;2022-10-22T11:23:05;2.17;;;1.00;;
9473;SDS011;8865;47.636;7.692;2022-10-22T11:25:47;3.08;;;1.05;;
9473;SDS011;8865;47.636;7.692;2022-10-22T11:31:16;2.80;;;1.20;;
9473;SDS011;8865;47.636;7.692;2022-10-22T11:36:29;1.20;;;1.10;;
9473;SDS011;8865;47.636;7.692;2022-10-22T11:38:56;3.47;;;1.30;;
9473;SDS011;8865;47.636;7.692;2022-10-22T11:41:23;1.55;;;0.90;;
9473;SDS011;8865;47.636;7.692;2022-10-22T11:46:38;1.38;;;1.00;;
9473;SDS011;8865;47.636;7.692;2022-10-22T11:49:21;0.90;;;0.80;;
9473;SDS011;8865;47.636;7.692;2022-10-22T11:52:27;1.38;;;0.98;;
9473;SDS011;8865;47.636;7.692;2022-10-22T11:55:27;1.77;;;1.20;;
9473;SDS011;8865;47.636;7.692;2022-10-22T11:57:57;2.90;;;1.02;;
9473;SDS011;8865;47.636;7.692;2022-10-22T12:00:32;2.58;;;1.20;;
9473;SDS011;8865;47.636;7.692;2022-10-22T12:03:14;4.95;;;1.05;;
9473;SDS011;8865;47.636;7.692;2022-10-22T12:05:42;1.92;;;0.77;;
9473;SDS011;8865;47.636;7.692;2022-10-22T12:08:16;2.15;;;1.20;;
9473;SDS011;8865;47.636;7.692;2022-10-22T12:14:20;3.35;;;1.35;;
9473;SDS011;8865;47.636;7.692;2022-10-22T12:16:50;1.73;;;1.30;;
9473;SDS011;8865;47.636;7.692;2022-10-22T12:19:36;1.85;;;0.70;;
9473;SDS011;8865;47.636;7.692;2022-10-22T12:22:20;1.92;;;1.00;;
9473;SDS011;8865;47.636;7.692;2022-10-22T12:24:50;1.30;;;0.75;;
9473;SDS011;8865;47.636;7.692;2022-10-22T12:27:20;1.33;;;0.80;;
9473;SDS011;8865;47.636;7.692;2022-10-22T12:29:59;4.38;;;1.50;;
9473;SDS011;8865;47.636;7.692;2022-10-22T12:32:38;1.42;;;0.68;;
9473;SDS011;8865;47.636;7.692;2022-10-22T12:35:10;1.38;;;0.90;;
9473;SDS011;8865;47.636;7.692;2022-10-22T12:37:41;1.60;;;0.75;;
9473;SDS011;8865;47.636;7.692;2022-10-22T12:42:54;2.50;;;0.80;;
9473;SDS011;8865;47.636;7.692;2022-10-22T12:45:22;2.20;;;0.70;;
9473;SDS011;8865;47.636;7.692;2022-10-22T12:47:55;5.35;;;0.80;;
9473;SDS011;8865;47.636;7.692;2022-10-22T12:50:24;2.00;;;0.80;;
9473;SDS011;8865;47.636;7.692;2022-10-22T12:52:57;2.85;;;0.80;;
9473;SDS011;8865;47.636;7.692;2022-10-22T12:55:24;3.15;;;0.95;;
9473;SDS011;8865;47.636;7.692;2022-10-22T12:57:51;2.72;;;1.02;;
9473;SDS011;8865;47.636;7.692;2022-10-22T13:00:21;2.75;;;0.98;;
9473;SDS011;8865;47.636;7.692;2022-10-22T13:02:52;3.28;;;0.93;;
9473;SDS011;8865;47.636;7.692;2022-10-22T13:05:21;3.30;;;0.80;;
9473;SDS011;8865;47.636;7.692;2022-10-22T13:07:52;1.77;;;0.80;;
9473;SDS011;8865;47.636;7.692;2022-10-22T13:10:34;1.35;;;0.80;;
9473;SDS011;8865;47.636;7.692;2022-10-22T13:13:02;1.42;;;0.90;;
9473;SDS011;8865;47.636;7.692;2022-10-22T13:18:00;2.15;;;0.98;;
9473;SDS011;8865;47.636;7.692;2022-10-22T13:20:50;2.53;;;1.05;;
9473;SDS011;8865;47.636;7.692;2022-10-22T13:23:27;1.80;;;0.85;;
9473;SDS011;8865;47.636;7.692;2022-10-22T13:25:58;2.85;;;0.90;;
9473;SDS011;8865;47.636;7.692;2022-10-22T13:28:27;1.10;;;0.80;;
9473;SDS011;8865;47.636;7.692;2022-10-22T13:30:58;1.90;;;0.98;;
9473;SDS011;8865;47.636;7.692;2022-10-22T13:33:31;2.90;;;0.90;;
9473;SDS011;8865;47.636;7.692;2022-10-22T13:35:59;0.82;;;0.80;;
9473;SDS011;8865;47.636;7.692;2022-10-22T13:38:26;4.13;;;0.88;;
9473;SDS011;8865;47.636;7.692;2022-10-22T13:40:53;2.35;;;0.70;;
9473;SDS011;8865;47.636;7.692;2022-10-22T13:43:20;3.00;;;1.25;;
9473;SDS011;8865;47.636;7.692;2022-10-22T13:45:47;1.23;;;0.80;;
9473;SDS011;8865;47.636;7.692;2022-10-22T13:48:17;0.88;;;0.70;;
9473;SDS011;8865;47.636;7.692;2022-10-22T13:50:49;2.35;;;1.00;;
9473;SDS011;8865;47.636;7.692;2022-10-22T13:53:18;1.83;;;0.80;;
9473;SDS011;8865;47.636;7.692;2022-10-22T13:55:47;3.42;;;0.80;;
9473;SDS011;8865;47.636;7.692;2022-10-22T13:58:16;0.93;;;0.77;;
9473;SDS011;8865;47.636;7.692;2022-10-22T14:00:47;2.25;;;0.80;;
9473;SDS011;8865;47.636;7.692;2022-10-22T14:03:17;5.45;;;0.95;;
9473;SDS011;8865;47.636;7.692;2022-10-22T14:05:46;1.90;;;1.05;;
9473;SDS011;8865;47.636;7.692;2022-10-22T14:08:14;4.93;;;1.10;;
9473;SDS011;8865;47.636;7.692;2022-10-22T14:10:42;1.75;;;0.95;;
9473;SDS011;8865;47.636;7.692;2022-10-22T14:13:14;1.42;;;0.75;;
9473;SDS011;8865;47.636;7.692;2022-10-22T14:15:42;4.32;;;1.00;;
9473;SDS011;8865;47.636;7.692;2022-10-22T14:18:14;2.63;;;0.70;;
9473;SDS011;8865;47.636;7.692;2022-10-22T14:20:48;2.50;;;1.20;;
9473;SDS011;8865;47.636;7.692;2022-10-22T14:23:18;2.85;;;0.75;;
9473;SDS011;8865;47.636;7.692;2022-10-22T14:25:45;2.50;;;1.00;;
9473;SDS011;8865;47.636;7.692;2022-10-22T14:28:11;2.72;;;0.90;;
9473;SDS011;8865;47.636;7.692;2022-10-22T14:30:38;3.20;;;0.70;;
9473;SDS011;8865;47.636;7.692;2022-10-22T14:35:39;2.60;;;0.70;;
9473;SDS011;8865;47.636;7.692;2022-10-22T14:38:05;1.92;;;1.10;;
9473;SDS011;8865;47.636;7.692;2022-10-22T14:40:31;3.25;;;1.00;;
9473;SDS011;8865;47.636;7.692;2022-10-22T14:42:57;3.50;;;1.00;;
9473;SDS011;8865;47.636;7.692;2022-10-22T14:45:24;2.07;;;0.90;;
9473;SDS011;8865;47.636;7.692;2022-10-22T14:47:51;2.07;;;1.00;;
9473;SDS011;8865;47.636;7.692;2022-10-22T14:50:22;4.50;;;1.03;;
9473;SDS011;8865;47.636;7.692;2022-10-22T14:52:49;1.47;;;0.87;;
9473;SDS011;8865;47.636;7.692;2022-10-22T14:55:16;1.47;;;0.90;;
9473;SDS011;8865;47.636;7.692;2022-10-22T14:57:43;1.63;;;0.77;;
9473;SDS011;8865;47.636;7.692;2022-10-22T15:00:11;1.83;;;0.70;;
9473;SDS011;8865;47.636;7.692;2022-10-22T15:02:42;0.90;;;0.77;;
9473;SDS011;8865;47.636;7.692;2022-10-22T15:05:09;4.03;;;1.00;;
9473;SDS011;8865;47.636;7.692;2022-10-22T15:07:35;1.03;;;0.70;;
9473;SDS011;8865;47.636;7.692;2022-10-22T15:10:03;1.07;;;0.70;;
9473;SDS011;8865;47.636;7.692;2022-10-22T15:12:33;2.37;;;0.90;;
9473;SDS011;8865;47.636;7.692;2022-10-22T15:15:23;3.27;;;0.70;;
9473;SDS011;8865;47.636;7.692;2022-10-22T15:17:49;2.53;;;1.03;;
9473;SDS011;8865;47.636;7.692;2022-10-22T15:20:15;2.73;;;1.00;;
9473;SDS011;8865;47.636;7.692;2022-10-22T15:22:44;1.37;;;1.00;;
9473;SDS011;8865;47.636;7.692;2022-10-22T15:25:11;4.03;;;1.10;;
9473;SDS011;8865;47.636;7.692;2022-10-22T15:27:38;2.87;;;1.03;;
9473;SDS011;8865;47.636;7.692;2022-10-22T15:30:04;3.43;;;1.20;;
9473;SDS011;8865;47.636;7.692;2022-10-22T15:32:31;1.10;;;0.90;;
9473;SDS011;8865;47.636;7.692;2022-10-22T15:34:58;2.70;;;1.17;;
9473;SDS011;8865;47.636;7.692;2022-10-22T15:37:34;0.97;;;0.87;;
9473;SDS011;8865;47.636;7.692;2022-10-22T15:40:11;3.90;;;2.30;;
9473;SDS011;8865;47.636;7.692;2022-10-22T15:42:38;2.37;;;1.60;;
9473;SDS011;8865;47.636;7.692;2022-10-22T15:45:04;3.20;;;1.43;;
9473;SDS011;8865;47.636;7.692;2022-10-22T15:47:31;2.57;;;1.30;;
9473;SDS011;8865;47.636;7.692;2022-10-22T15:49:57;2.70;;;1.30;;
9473;SDS011;8865;47.636;7.692;2022-10-22T15:52:23;1.83;;;1.20;;
9473;SDS011;8865;47.636;7.692;2022-10-22T15:55:03;3.13;;;1.30;;
9473;SDS011;8865;47.636;7.692;2022-10-22T15:57:40;3.73;;;1.30;;
9473;SDS011;8865;47.636;7.692;2022-10-22T16:03:15;1.87;;;1.10;;
9473;SDS011;8865;47.636;7.692;2022-10-22T16:06:00;2.33;;;1.10;;
9473;SDS011;8865;47.636;7.692;2022-10-22T16:08:26;2.77;;;1.10;;
9473;SDS011;8865;47.636;7.692;2022-10-22T16:10:52;2.63;;;1.03;;
9473;SDS011;8865;47.636;7.692;2022-10-22T16:13:19;2.47;;;1.07;;
9473;SDS011;8865;47.636;7.692;2022-10-22T16:15:49;3.70;;;1.47;;
9473;SDS011;8865;47.636;7.692;2022-10-22T16:18:16;2.97;;;1.20;;
9473;SDS011;8865;47.636;7.692;2022-10-22T16:20:43;6.63;;;1.80;;
9473;SDS011;8865;47.636;7.692;2022-10-22T16:23:09;2.87;;;1.40;;
9473;SDS011;8865;47.636;7.692;2022-10-22T16:25:39;5.17;;;1.80;;
9473;SDS011;8865;47.636;7.692;2022-10-22T16:28:06;4.40;;;1.60;;
9473;SDS011;8865;47.636;7.692;2022-10-22T16:30:36;5.47;;;1.60;;
9473;SDS011;8865;47.636;7.692;2022-10-22T16:33:04;6.20;;;1.90;;
9473;SDS011;8865;47.636;7.692;2022-10-22T16:35:31;6.73;;;1.73;;
9473;SDS011;8865;47.636;7.692;2022-10-22T16:37:57;5.33;;;1.67;;
9473;SDS011;8865;47.636;7.692;2022-10-22T16:40:23;6.93;;;1.60;;
9473;SDS011;8865;47.636;7.692;2022-10-22T16:42:49;6.13;;;1.93;;
9473;SDS011;8865;47.636;7.692;2022-10-22T16:45:16;5.70;;;2.00;;
9473;SDS011;8865;47.636;7.692;2022-10-22T16:47:42;5.47;;;2.43;;
9473;SDS011;8865;47.636;7.692;2022-10-22T16:50:10;5.33;;;2.30;;
9473;SDS011;8865;47.636;7.692;2022-10-22T16:52:36;8.03;;;2.50;;
9473;SDS011;8865;47.636;7.692;2022-10-22T16:55:02;9.27;;;2.33;;
9473;SDS011;8865;47.636;7.692;2022-10-22T16:57:28;6.57;;;2.30;;
9473;SDS011;8865;47.636;7.692;2022-10-22T16:59:56;5.90;;;2.60;;
9473;SDS011;8865;47.636;7.692;2022-10-22T17:02:22;4.60;;;2.70;;
9473;SDS011;8865;47.636;7.692;2022-10-22T17:04:48;7.67;;;2.93;;
9473;SDS011;8865;47.636;7.692;2022-10-22T17:07:14;7.83;;;2.60;;
9473;SDS011;8865;47.636;7.692;2022-10-22T17:09:40;11.73;;;3.10;;
9473;SDS011;8865;47.636;7.692;2022-10-22T17:12:06;8.73;;;2.80;;
9473;SDS011;8865;47.636;7.692;2022-10-22T17:14:32;11.37;;;2.10;;
9473;SDS011;8865;47.636;7.692;2022-10-22T17:16:58;7.07;;;2.00;;
9473;SDS011;8865;47.636;7.692;2022-10-22T17:19:24;5.33;;;2.03;;
9473;SDS011;8865;47.636;7.692;2022-10-22T17:21:51;6.97;;;2.37;;